sensor_id;sensor_type;location;lat;lon;timestamp;pressure;altitude;pressure_sealevel;temperature;humidity
42385;BME280;28042;43.986;22.860;2023-05-20T00:02:24;101608.63;;;12.92;100.00
42385;BME280;28042;43.986;22.860;2023-05-20T00:04:50;101616.38;;;12.88;100.00
42385;BME280;28042;43.986;22.860;2023-05-20T00:07:15;101612.91;;;12.80;100.00
42385;BME280;28042;43.986;22.860;2023-05-20T00:09:40;101603.75;;;12.72;100.00
42385;BME280;28042;43.986;22.860;2023-05-20T00:12:06;101598.56;;;12.78;100.00
42385;BME280;28042;43.986;22.860;2023-05-20T00:14:31;101599.94;;;12.88;100.00
42385;BME280;28042;43.986;22.860;2023-05-20T00:16:56;101609.47;;;12.92;100.00
42385;BME280;28042;43.986;22.860;2023-05-20T00:19:21;101606.19;;;12.82;100.00
42385;BME280;28042;43.986;22.860;2023-05-20T00:21:47;101598.72;;;12.91;100.00
42385;BME280;28042;43.986;22.860;2023-05-20T00:24:12;101600.03;;;12.95;100.00
42385;BME280;28042;43.986;22.860;2023-05-20T00:26:37;101604.56;;;12.88;100.00
42385;BME280;28042;43.986;22.860;2023-05-20T00:29:03;101605.13;;;12.98;100.00
42385;BME280;28042;43.986;22.860;2023-05-20T00:31:28;101605.22;;;13.05;100.00
42385;BME280;28042;43.986;22.860;2023-05-20T00:33:53;101605.75;;;13.15;100.00
42385;BME280;28042;43.986;22.860;2023-05-20T00:36:19;101605.38;;;13.18;100.00
42385;BME280;28042;43.986;22.860;2023-05-20T00:38:44;101610.84;;;13.18;100.00
42385;BME280;28042;43.986;22.860;2023-05-20T00:41:09;101599.03;;;13.17;100.00
42385;BME280;28042;43.986;22.860;2023-05-20T00:43:35;101588.00;;;13.11;100.00
42385;BME280;28042;43.986;22.860;2023-05-20T00:46:00;101588.84;;;13.11;100.00
42385;BME280;28042;43.986;22.860;2023-05-20T00:48:26;101585.72;;;13.14;100.00
42385;BME280;28042;43.986;22.860;2023-05-20T00:50:53;101588.47;;;13.14;100.00
42385;BME280;28042;43.986;22.860;2023-05-20T00:53:19;101591.41;;;13.13;100.00
42385;BME280;28042;43.986;22.860;2023-05-20T00:55:45;101580.81;;;13.10;100.00
42385;BME280;28042;43.986;22.860;2023-05-20T00:58:10;101588.19;;;13.09;100.00
42385;BME280;28042;43.986;22.860;2023-05-20T01:00:36;101584.59;;;13.09;100.00
42385;BME280;28042;43.986;22.860;2023-05-20T01:03:01;101592.44;;;13.12;100.00
42385;BME280;28042;43.986;22.860;2023-05-20T01:05:27;101582.34;;;13.12;100.00
42385;BME280;28042;43.986;22.860;2023-05-20T01:07:52;101591.56;;;13.11;100.00
42385;BME280;28042;43.986;22.860;2023-05-20T01:10:18;101593.66;;;13.09;100.00
42385;BME280;28042;43.986;22.860;2023-05-20T01:12:45;101593.00;;;13.07;100.00
42385;BME280;28042;43.986;22.860;2023-05-20T01:15:12;101596.81;;;13.06;100.00
42385;BME280;28042;43.986;22.860;2023-05-20T01:17:42;101587.44;;;13.00;100.00
42385;BME280;28042;43.986;22.860;2023-05-20T01:20:09;101585.94;;;12.98;100.00
42385;BME280;28042;43.986;22.860;2023-05-20T01:22:45;101569.13;;;13.01;100.00
42385;BME280;28042;43.986;22.860;2023-05-20T01:25:11;101568.47;;;12.99;100.00
42385;BME280;28042;43.986;22.860;2023-05-20T01:27:36;101565.94;;;12.97;100.00
42385;BME280;28042;43.986;22.860;2023-05-20T01:30:01;101571.31;;;12.91;100.00
42385;BME280;28042;43.986;22.860;2023-05-20T01:32:30;101577.09;;;12.81;100.00
42385;BME280;28042;43.986;22.860;2023-05-20T01:34:56;101582.50;;;12.74;100.00
42385;BME280;28042;43.986;22.860;2023-05-20T01:37:23;101583.28;;;12.68;100.00
42385;BME280;28042;43.986;22.860;2023-05-20T01:39:49;101580.88;;;12.65;100.00
42385;BME280;28042;43.986;22.860;2023-05-20T01:42:15;101574.75;;;12.63;100.00
42385;BME280;28042;43.986;22.860;2023-05-20T01:44:41;101576.25;;;12.66;100.00
42385;BME280;28042;43.986;22.860;2023-05-20T01:47:07;101569.59;;;12.54;100.00
42385;BME280;28042;43.986;22.860;2023-05-20T01:49:32;101570.03;;;12.57;100.00
42385;BME280;28042;43.986;22.860;2023-05-20T01:51:58;101561.19;;;12.55;100.00
42385;BME280;28042;43.986;22.860;2023-05-20T01:54:23;101568.53;;;12.55;100.00
42385;BME280;28042;43.986;22.860;2023-05-20T01:56:49;101569.59;;;12.54;100.00
42385;BME280;28042;43.986;22.860;2023-05-20T01:59:14;101554.66;;;12.41;100.00
42385;BME280;28042;43.986;22.860;2023-05-20T02:01:39;101564.75;;;12.41;100.00
42385;BME280;28042;43.986;22.860;2023-05-20T02:04:05;101558.63;;;12.39;100.00
42385;BME280;28042;43.986;22.860;2023-05-20T02:06:30;101565.53;;;12.35;100.00
42385;BME280;28042;43.986;22.860;2023-05-20T02:08:55;101569.09;;;12.21;100.00
42385;BME280;28042;43.986;22.860;2023-05-20T02:11:21;101568.44;;;12.19;100.00
42385;BME280;28042;43.986;22.860;2023-05-20T02:13:46;101566.06;;;12.15;100.00
42385;BME280;28042;43.986;22.860;2023-05-20T02:16:12;101562.88;;;12.12;100.00
42385;BME280;28042;43.986;22.860;2023-05-20T02:18:37;101567.56;;;12.03;100.00
42385;BME280;28042;43.986;22.860;2023-05-20T02:21:03;101561.63;;;12.00;100.00
42385;BME280;28042;43.986;22.860;2023-05-20T02:23:29;101570.50;;;12.02;100.00
42385;BME280;28042;43.986;22.860;2023-05-20T02:25:54;101581.25;;;12.03;100.00
42385;BME280;28042;43.986;22.860;2023-05-20T02:28:20;101571.72;;;11.99;100.00
42385;BME280;28042;43.986;22.860;2023-05-20T02:30:45;101574.22;;;11.86;100.00
42385;BME280;28042;43.986;22.860;2023-05-20T02:33:11;101576.50;;;11.82;100.00
42385;BME280;28042;43.986;22.860;2023-05-20T02:35:36;101576.34;;;11.76;100.00
42385;BME280;28042;43.986;22.860;2023-05-20T02:38:01;101585.56;;;11.75;100.00
42385;BME280;28042;43.986;22.860;2023-05-20T02:40:27;101585.88;;;11.80;100.00
42385;BME280;28042;43.986;22.860;2023-05-20T02:42:52;101596.63;;;11.81;100.00
42385;BME280;28042;43.986;22.860;2023-05-20T02:45:17;101597.13;;;11.85;100.00
42385;BME280;28042;43.986;22.860;2023-05-20T02:47:43;101585.81;;;11.88;100.00
42385;BME280;28042;43.986;22.860;2023-05-20T02:50:08;101577.34;;;11.83;100.00
42385;BME280;28042;43.986;22.860;2023-05-20T02:52:34;101576.34;;;11.76;100.00
42385;BME280;28042;43.986;22.860;2023-05-20T02:55:00;101589.63;;;11.79;100.00
42385;BME280;28042;43.986;22.860;2023-05-20T02:57:25;101590.66;;;11.78;100.00
42385;BME280;28042;43.986;22.860;2023-05-20T02:59:54;101593.22;;;11.79;100.00
42385;BME280;28042;43.986;22.860;2023-05-20T03:02:19;101593.75;;;11.83;100.00
42385;BME280;28042;43.986;22.860;2023-05-20T03:04:45;101594.41;;;11.85;100.00
42385;BME280;28042;43.986;22.860;2023-05-20T03:07:11;101606.00;;;11.87;100.00
42385;BME280;28042;43.986;22.860;2023-05-20T03:09:36;101604.75;;;11.89;100.00
42385;BME280;28042;43.986;22.860;2023-05-20T03:12:02;101602.53;;;11.93;100.00
42385;BME280;28042;43.986;22.860;2023-05-20T03:14:27;101606.97;;;11.94;100.00
42385;BME280;28042;43.986;22.860;2023-05-20T03:16:52;101611.69;;;12.00;100.00
42385;BME280;28042;43.986;22.860;2023-05-20T03:19:20;101613.88;;;12.05;100.00
42385;BME280;28042;43.986;22.860;2023-05-20T03:21:45;101610.66;;;12.01;100.00
42385;BME280;28042;43.986;22.860;2023-05-20T03:24:10;101605.13;;;12.09;100.00
42385;BME280;28042;43.986;22.860;2023-05-20T03:26:36;101601.47;;;12.17;100.00
42385;BME280;28042;43.986;22.860;2023-05-20T03:29:04;101601.69;;;12.07;100.00
42385;BME280;28042;43.986;22.860;2023-05-20T03:31:29;101603.78;;;12.05;100.00
42385;BME280;28042;43.986;22.860;2023-05-20T03:33:54;101607.78;;;12.18;100.00
42385;BME280;28042;43.986;22.860;2023-05-20T03:36:20;101612.47;;;12.24;100.00
42385;BME280;28042;43.986;22.860;2023-05-20T03:38:45;101606.84;;;12.40;100.00
42385;BME280;28042;43.986;22.860;2023-05-20T03:41:10;101605.16;;;12.68;100.00
42385;BME280;28042;43.986;22.860;2023-05-20T03:43:36;101607.97;;;12.90;100.00
42385;BME280;28042;43.986;22.860;2023-05-20T03:46:01;101605.28;;;13.11;100.00
42385;BME280;28042;43.986;22.860;2023-05-20T03:48:26;101591.00;;;13.31;100.00
42385;BME280;28042;43.986;22.860;2023-05-20T03:50:52;101586.19;;;13.54;100.00
42385;BME280;28042;43.986;22.860;2023-05-20T03:53:17;101585.72;;;13.72;100.00
42385;BME280;28042;43.986;22.860;2023-05-20T03:55:44;101581.06;;;13.72;100.00
42385;BME280;28042;43.986;22.860;2023-05-20T03:58:09;101580.81;;;13.89;100.00
42385;BME280;28042;43.986;22.860;2023-05-20T04:00:34;101577.63;;;14.13;100.00
42385;BME280;28042;43.986;22.860;2023-05-20T04:03:00;101583.72;;;14.36;100.00
42385;BME280;28042;43.986;22.860;2023-05-20T04:05:25;101573.09;;;14.55;100.00
42385;BME280;28042;43.986;22.860;2023-05-20T04:07:51;101572.72;;;14.64;100.00
42385;BME280;28042;43.986;22.860;2023-05-20T04:10:17;101570.91;;;14.85;100.00
42385;BME280;28042;43.986;22.860;2023-05-20T04:12:43;101558.78;;;15.27;100.00
42385;BME280;28042;43.986;22.860;2023-05-20T04:15:08;101561.78;;;15.52;100.00
42385;BME280;28042;43.986;22.860;2023-05-20T04:17:34;101563.13;;;15.89;100.00
42385;BME280;28042;43.986;22.860;2023-05-20T04:20:02;101557.59;;;15.63;100.00
42385;BME280;28042;43.986;22.860;2023-05-20T04:22:30;101565.69;;;15.84;100.00
42385;BME280;28042;43.986;22.860;2023-05-20T04:24:56;101561.00;;;16.18;100.00
42385;BME280;28042;43.986;22.860;2023-05-20T04:27:21;101563.94;;;16.36;100.00
42385;BME280;28042;43.986;22.860;2023-05-20T04:29:47;101554.31;;;16.65;100.00
42385;BME280;28042;43.986;22.860;2023-05-20T04:32:13;101561.28;;;16.87;100.00
42385;BME280;28042;43.986;22.860;2023-05-20T04:34:38;101569.63;;;17.12;100.00
42385;BME280;28042;43.986;22.860;2023-05-20T04:37:04;101572.94;;;17.28;100.00
42385;BME280;28042;43.986;22.860;2023-05-20T04:39:31;101559.16;;;17.59;100.00
42385;BME280;28042;43.986;22.860;2023-05-20T04:41:57;101570.78;;;17.99;100.00
42385;BME280;28042;43.986;22.860;2023-05-20T04:44:23;101573.38;;;18.56;97.71
42385;BME280;28042;43.986;22.860;2023-05-20T04:46:50;101565.44;;;19.03;94.44
42385;BME280;28042;43.986;22.860;2023-05-20T04:49:16;101566.00;;;19.23;90.55
42385;BME280;28042;43.986;22.860;2023-05-20T04:51:42;101554.91;;;19.53;87.23
42385;BME280;28042;43.986;22.860;2023-05-20T04:54:07;101569.59;;;19.84;84.96
42385;BME280;28042;43.986;22.860;2023-05-20T04:56:33;101565.41;;;20.16;82.78
42385;BME280;28042;43.986;22.860;2023-05-20T04:58:58;101564.06;;;20.66;80.12
42385;BME280;28042;43.986;22.860;2023-05-20T05:01:24;101563.78;;;21.19;77.15
42385;BME280;28042;43.986;22.860;2023-05-20T05:03:49;101562.38;;;21.45;74.87
42385;BME280;28042;43.986;22.860;2023-05-20T05:06:14;101561.59;;;21.78;74.75
42385;BME280;28042;43.986;22.860;2023-05-20T05:08:40;101566.66;;;22.32;71.77
42385;BME280;28042;43.986;22.860;2023-05-20T05:11:05;101564.34;;;22.62;68.60
42385;BME280;28042;43.986;22.860;2023-05-20T05:13:31;101571.19;;;22.54;68.92
42385;BME280;28042;43.986;22.860;2023-05-20T05:15:56;101564.19;;;22.74;69.26
42385;BME280;28042;43.986;22.860;2023-05-20T05:18:22;101562.69;;;23.05;66.60
42385;BME280;28042;43.986;22.860;2023-05-20T05:20:47;101562.16;;;23.30;66.50
42385;BME280;28042;43.986;22.860;2023-05-20T05:23:13;101573.41;;;23.18;66.00
42385;BME280;28042;43.986;22.860;2023-05-20T05:25:38;101571.19;;;23.42;65.79
42385;BME280;28042;43.986;22.860;2023-05-20T05:28:03;101574.78;;;23.64;64.83
42385;BME280;28042;43.986;22.860;2023-05-20T05:30:28;101575.09;;;23.68;63.62
42385;BME280;28042;43.986;22.860;2023-05-20T05:32:54;101583.81;;;23.77;63.83
42385;BME280;28042;43.986;22.860;2023-05-20T05:35:19;101576.34;;;23.28;66.00
42385;BME280;28042;43.986;22.860;2023-05-20T05:37:45;101583.94;;;22.72;68.83
42385;BME280;28042;43.986;22.860;2023-05-20T05:40:10;101571.19;;;22.38;71.79
42385;BME280;28042;43.986;22.860;2023-05-20T05:42:35;101567.44;;;22.10;73.62
42385;BME280;28042;43.986;22.860;2023-05-20T05:45:01;101575.06;;;21.12;79.10
42385;BME280;28042;43.986;22.860;2023-05-20T05:47:26;101570.31;;;20.73;84.91
42385;BME280;28042;43.986;22.860;2023-05-20T05:49:56;101566.94;;;20.24;89.01
42385;BME280;28042;43.986;22.860;2023-05-20T05:52:21;101567.91;;;19.94;91.53
42385;BME280;28042;43.986;22.860;2023-05-20T05:54:47;101573.28;;;19.77;93.32
42385;BME280;28042;43.986;22.860;2023-05-20T05:57:12;101569.28;;;19.62;95.83
42385;BME280;28042;43.986;22.860;2023-05-20T05:59:37;101574.41;;;19.28;98.47
42385;BME280;28042;43.986;22.860;2023-05-20T06:02:03;101569.19;;;19.38;99.89
42385;BME280;28042;43.986;22.860;2023-05-20T06:04:28;101566.63;;;19.37;99.20
42385;BME280;28042;43.986;22.860;2023-05-20T06:06:53;101571.06;;;19.26;100.00
42385;BME280;28042;43.986;22.860;2023-05-20T06:09:19;101580.38;;;19.43;100.00
42385;BME280;28042;43.986;22.860;2023-05-20T06:11:44;101573.63;;;19.58;100.00
42385;BME280;28042;43.986;22.860;2023-05-20T06:14:11;101580.34;;;19.62;99.52
42385;BME280;28042;43.986;22.860;2023-05-20T06:16:36;101575.00;;;19.48;100.00
42385;BME280;28042;43.986;22.860;2023-05-20T06:19:01;101571.16;;;19.49;100.00
42385;BME280;28042;43.986;22.860;2023-05-20T06:21:29;101583.69;;;19.22;100.00
42385;BME280;28042;43.986;22.860;2023-05-20T06:23:55;101582.03;;;19.63;99.32
42385;BME280;28042;43.986;22.860;2023-05-20T06:26:20;101577.16;;;19.88;96.75
42385;BME280;28042;43.986;22.860;2023-05-20T06:28:46;101580.41;;;19.85;94.78
42385;BME280;28042;43.986;22.860;2023-05-20T06:31:12;101579.16;;;20.46;92.19
42385;BME280;28042;43.986;22.860;2023-05-20T06:33:37;101571.47;;;21.00;86.72
42385;BME280;28042;43.986;22.860;2023-05-20T06:36:02;101575.53;;;21.09;86.33
42385;BME280;28042;43.986;22.860;2023-05-20T06:38:28;101570.09;;;21.14;83.61
42385;BME280;28042;43.986;22.860;2023-05-20T06:40:53;101564.44;;;21.09;84.02
42385;BME280;28042;43.986;22.860;2023-05-20T06:43:18;101573.47;;;20.65;85.24
42385;BME280;28042;43.986;22.860;2023-05-20T06:45:44;101567.75;;;20.95;87.61
42385;BME280;28042;43.986;22.860;2023-05-20T06:48:09;101574.56;;;21.15;83.42
42385;BME280;28042;43.986;22.860;2023-05-20T06:50:35;101574.81;;;21.02;85.08
42385;BME280;28042;43.986;22.860;2023-05-20T06:53:00;101585.75;;;20.80;86.97
42385;BME280;28042;43.986;22.860;2023-05-20T06:55:26;101570.53;;;20.95;88.27
42385;BME280;28042;43.986;22.860;2023-05-20T06:57:51;101567.97;;;20.93;85.92
42385;BME280;28042;43.986;22.860;2023-05-20T07:00:16;101564.63;;;21.20;86.91
42385;BME280;28042;43.986;22.860;2023-05-20T07:02:42;101561.88;;;21.31;83.70
42385;BME280;28042;43.986;22.860;2023-05-20T07:05:08;101564.63;;;21.31;80.37
42385;BME280;28042;43.986;22.860;2023-05-20T07:07:33;101563.97;;;21.41;79.64
42385;BME280;28042;43.986;22.860;2023-05-20T07:09:59;101557.34;;;21.42;78.19
42385;BME280;28042;43.986;22.860;2023-05-20T07:12:24;101551.09;;;21.35;75.36
42385;BME280;28042;43.986;22.860;2023-05-20T07:14:49;101547.44;;;21.46;77.02
42385;BME280;28042;43.986;22.860;2023-05-20T07:17:15;101546.38;;;21.64;75.56
42385;BME280;28042;43.986;22.860;2023-05-20T07:19:40;101545.44;;;21.75;71.99
42385;BME280;28042;43.986;22.860;2023-05-20T07:22:06;101551.75;;;21.87;74.82
42385;BME280;28042;43.986;22.860;2023-05-20T07:24:31;101548.56;;;21.95;69.63
42385;BME280;28042;43.986;22.860;2023-05-20T07:26:57;101546.13;;;21.99;69.86
42385;BME280;28042;43.986;22.860;2023-05-20T07:29:22;101548.97;;;22.04;70.68
42385;BME280;28042;43.986;22.860;2023-05-20T07:31:47;101559.50;;;22.02;71.47
42385;BME280;28042;43.986;22.860;2023-05-20T07:34:12;101551.31;;;21.95;69.41
42385;BME280;28042;43.986;22.860;2023-05-20T07:36:38;101554.22;;;22.17;69.81
42385;BME280;28042;43.986;22.860;2023-05-20T07:39:03;101548.31;;;22.14;67.13
42385;BME280;28042;43.986;22.860;2023-05-20T07:41:29;101555.91;;;22.18;68.16
42385;BME280;28042;43.986;22.860;2023-05-20T07:43:54;101554.97;;;22.29;69.86
42385;BME280;28042;43.986;22.860;2023-05-20T07:46:19;101552.47;;;22.50;69.21
42385;BME280;28042;43.986;22.860;2023-05-20T07:48:45;101552.41;;;22.67;68.57
42385;BME280;28042;43.986;22.860;2023-05-20T07:51:11;101549.44;;;22.73;65.91
42385;BME280;28042;43.986;22.860;2023-05-20T07:53:36;101535.34;;;22.02;65.22
42385;BME280;28042;43.986;22.860;2023-05-20T07:56:02;101536.44;;;21.85;67.03
42385;BME280;28042;43.986;22.860;2023-05-20T07:58:27;101536.69;;;22.00;67.12
42385;BME280;28042;43.986;22.860;2023-05-20T08:00:52;101543.25;;;22.27;70.58
42385;BME280;28042;43.986;22.860;2023-05-20T08:03:18;101539.69;;;22.32;69.37
42385;BME280;28042;43.986;22.860;2023-05-20T08:05:43;101539.75;;;22.15;72.03
42385;BME280;28042;43.986;22.860;2023-05-20T08:08:09;101540.13;;;21.57;73.66
42385;BME280;28042;43.986;22.860;2023-05-20T08:10:34;101535.91;;;21.26;76.77
42385;BME280;28042;43.986;22.860;2023-05-20T08:13:00;101535.31;;;21.52;74.98
42385;BME280;28042;43.986;22.860;2023-05-20T08:15:25;101537.53;;;21.84;74.00
42385;BME280;28042;43.986;22.860;2023-05-20T08:17:50;101532.31;;;21.87;74.26
42385;BME280;28042;43.986;22.860;2023-05-20T08:20:16;101531.22;;;22.22;76.03
42385;BME280;28042;43.986;22.860;2023-05-20T08:22:42;101534.25;;;22.59;73.61
42385;BME280;28042;43.986;22.860;2023-05-20T08:25:08;101538.91;;;22.75;72.21
42385;BME280;28042;43.986;22.860;2023-05-20T08:27:34;101530.28;;;22.94;72.18
42385;BME280;28042;43.986;22.860;2023-05-20T08:29:59;101525.69;;;23.31;71.73
42385;BME280;28042;43.986;22.860;2023-05-20T08:32:24;101525.78;;;23.41;68.89
42385;BME280;28042;43.986;22.860;2023-05-20T08:34:50;101526.56;;;23.10;67.95
42385;BME280;28042;43.986;22.860;2023-05-20T08:37:15;101527.59;;;22.82;68.54
42385;BME280;28042;43.986;22.860;2023-05-20T08:39:41;101520.06;;;22.82;69.38
42385;BME280;28042;43.986;22.860;2023-05-20T08:42:07;101517.63;;;23.08;68.88
42385;BME280;28042;43.986;22.860;2023-05-20T08:44:33;101518.34;;;23.20;68.31
42385;BME280;28042;43.986;22.860;2023-05-20T08:46:58;101502.53;;;23.58;68.51
42385;BME280;28042;43.986;22.860;2023-05-20T08:49:24;101511.09;;;23.78;66.42
42385;BME280;28042;43.986;22.860;2023-05-20T08:51:49;101511.16;;;23.88;67.56
42385;BME280;28042;43.986;22.860;2023-05-20T08:54:14;101511.09;;;23.78;65.40
42385;BME280;28042;43.986;22.860;2023-05-20T08:56:41;101507.34;;;23.62;66.01
42385;BME280;28042;43.986;22.860;2023-05-20T08:59:07;101513.25;;;23.71;65.63
42385;BME280;28042;43.986;22.860;2023-05-20T09:01:33;101505.78;;;23.77;64.10
42385;BME280;28042;43.986;22.860;2023-05-20T09:04:01;101507.69;;;23.71;66.05
42385;BME280;28042;43.986;22.860;2023-05-20T09:06:27;101504.41;;;23.79;66.12
42385;BME280;28042;43.986;22.860;2023-05-20T09:08:52;101497.72;;;23.75;66.08
42385;BME280;28042;43.986;22.860;2023-05-20T09:11:18;101503.81;;;23.45;66.70
42385;BME280;28042;43.986;22.860;2023-05-20T09:13:43;101504.38;;;23.74;68.13
42385;BME280;28042;43.986;22.860;2023-05-20T09:16:09;101499.63;;;24.07;65.29
42385;BME280;28042;43.986;22.860;2023-05-20T09:18:37;101497.25;;;24.31;65.99
42385;BME280;28042;43.986;22.860;2023-05-20T09:21:05;101487.69;;;24.64;66.19
42385;BME280;28042;43.986;22.860;2023-05-20T09:23:31;101496.97;;;24.79;63.74
42385;BME280;28042;43.986;22.860;2023-05-20T09:25:59;101492.25;;;24.90;59.33
42385;BME280;28042;43.986;22.860;2023-05-20T09:28:24;101493.91;;;24.91;59.13
42385;BME280;28042;43.986;22.860;2023-05-20T09:30:49;101490.81;;;24.83;61.29
42385;BME280;28042;43.986;22.860;2023-05-20T09:33:17;101490.00;;;24.92;60.05
42385;BME280;28042;43.986;22.860;2023-05-20T09:35:43;101477.53;;;25.05;60.36
42385;BME280;28042;43.986;22.860;2023-05-20T09:38:08;101478.88;;;24.97;60.02
42385;BME280;28042;43.986;22.860;2023-05-20T09:40:34;101468.25;;;24.99;59.69
42385;BME280;28042;43.986;22.860;2023-05-20T09:43:05;101468.88;;;25.06;58.90
42385;BME280;28042;43.986;22.860;2023-05-20T09:45:35;101478.28;;;24.90;56.10
42385;BME280;28042;43.986;22.860;2023-05-20T09:48:01;101472.94;;;24.84;52.74
42385;BME280;28042;43.986;22.860;2023-05-20T09:50:27;101472.94;;;24.21;54.42
42385;BME280;28042;43.986;22.860;2023-05-20T09:52:54;101463.66;;;24.52;54.75
42385;BME280;28042;43.986;22.860;2023-05-20T09:55:20;101462.63;;;24.84;53.15
42385;BME280;28042;43.986;22.860;2023-05-20T09:57:46;101461.38;;;24.44;53.96
42385;BME280;28042;43.986;22.860;2023-05-20T10:00:12;101454.75;;;24.61;52.20
42385;BME280;28042;43.986;22.860;2023-05-20T10:02:44;101469.34;;;24.25;52.83
42385;BME280;28042;43.986;22.860;2023-05-20T10:05:23;101450.19;;;24.34;53.39
42385;BME280;28042;43.986;22.860;2023-05-20T10:10:40;101461.56;;;25.00;51.69
42385;BME280;28042;43.986;22.860;2023-05-20T10:18:40;101435.41;;;25.37;50.06
42385;BME280;28042;43.986;22.860;2023-05-20T10:21:19;101435.97;;;25.54;49.97
42385;BME280;28042;43.986;22.860;2023-05-20T10:23:48;101445.38;;;24.97;50.20
42385;BME280;28042;43.986;22.860;2023-05-20T10:26:14;101433.13;;;25.08;52.19
42385;BME280;28042;43.986;22.860;2023-05-20T10:28:39;101428.13;;;25.36;49.55
42385;BME280;28042;43.986;22.860;2023-05-20T10:31:14;101441.00;;;25.37;49.88
42385;BME280;28042;43.986;22.860;2023-05-20T10:33:41;101434.53;;;25.06;49.43
42385;BME280;28042;43.986;22.860;2023-05-20T10:36:07;101419.72;;;25.05;48.86
42385;BME280;28042;43.986;22.860;2023-05-20T10:38:32;101426.44;;;25.04;51.20
42385;BME280;28042;43.986;22.860;2023-05-20T10:41:06;101426.69;;;25.08;49.75
42385;BME280;28042;43.986;22.860;2023-05-20T10:43:31;101425.91;;;25.38;49.95
42385;BME280;28042;43.986;22.860;2023-05-20T10:45:57;101421.13;;;25.08;50.61
42385;BME280;28042;43.986;22.860;2023-05-20T10:48:24;101418.50;;;24.71;50.43
42385;BME280;28042;43.986;22.860;2023-05-20T10:50:52;101405.09;;;24.73;50.78
42385;BME280;28042;43.986;22.860;2023-05-20T10:53:20;101411.31;;;25.00;50.14
42385;BME280;28042;43.986;22.860;2023-05-20T10:55:47;101399.94;;;25.38;50.36
42385;BME280;28042;43.986;22.860;2023-05-20T10:58:13;101392.34;;;25.28;49.90
42385;BME280;28042;43.986;22.860;2023-05-20T11:00:39;101394.88;;;25.80;49.89
42385;BME280;28042;43.986;22.860;2023-05-20T11:03:05;101394.84;;;25.70;48.22
42385;BME280;28042;43.986;22.860;2023-05-20T11:05:31;101394.03;;;25.64;49.32
42385;BME280;28042;43.986;22.860;2023-05-20T11:08:00;101392.31;;;25.99;48.81
42385;BME280;28042;43.986;22.860;2023-05-20T11:10:26;101395.41;;;25.98;50.00
42385;BME280;28042;43.986;22.860;2023-05-20T11:12:51;101395.16;;;25.33;49.36
42385;BME280;28042;43.986;22.860;2023-05-20T11:15:17;101397.28;;;24.60;49.46
42385;BME280;28042;43.986;22.860;2023-05-20T11:18:03;101396.66;;;24.42;51.51
42385;BME280;28042;43.986;22.860;2023-05-20T11:20:28;101383.09;;;25.02;50.63
42385;BME280;28042;43.986;22.860;2023-05-20T11:22:55;101380.91;;;25.09;50.16
42385;BME280;28042;43.986;22.860;2023-05-20T11:25:21;101375.63;;;25.38;49.22
42385;BME280;28042;43.986;22.860;2023-05-20T11:27:48;101372.53;;;25.45;48.86
42385;BME280;28042;43.986;22.860;2023-05-20T11:30:13;101372.81;;;25.43;50.33
42385;BME280;28042;43.986;22.860;2023-05-20T11:32:58;101368.91;;;25.49;49.15
42385;BME280;28042;43.986;22.860;2023-05-20T11:35:24;101369.41;;;24.80;50.00
42385;BME280;28042;43.986;22.860;2023-05-20T11:40:42;101365.53;;;25.42;47.86
42385;BME280;28042;43.986;22.860;2023-05-20T11:43:09;101366.06;;;25.59;49.56
42385;BME280;28042;43.986;22.860;2023-05-20T11:45:38;101365.50;;;25.83;48.28
42385;BME280;28042;43.986;22.860;2023-05-20T11:48:04;101358.78;;;25.79;46.77
42385;BME280;28042;43.986;22.860;2023-05-20T11:50:34;101352.88;;;26.01;48.72
42385;BME280;28042;43.986;22.860;2023-05-20T11:53:01;101349.47;;;26.68;50.73
42385;BME280;28042;43.986;22.860;2023-05-20T11:55:27;101337.84;;;26.90;47.73
42385;BME280;28042;43.986;22.860;2023-05-20T11:57:53;101338.31;;;27.02;46.08
42385;BME280;28042;43.986;22.860;2023-05-20T12:00:18;101335.44;;;26.73;49.98
42385;BME280;28042;43.986;22.860;2023-05-20T12:02:45;101331.47;;;26.85;48.04
42385;BME280;28042;43.986;22.860;2023-05-20T12:05:11;101327.09;;;27.02;47.10
42385;BME280;28042;43.986;22.860;2023-05-20T12:07:36;101323.22;;;27.32;45.71
42385;BME280;28042;43.986;22.860;2023-05-20T12:10:02;101317.91;;;26.97;45.14
42385;BME280;28042;43.986;22.860;2023-05-20T12:12:27;101326.34;;;26.92;47.03
42385;BME280;28042;43.986;22.860;2023-05-20T12:14:53;101324.81;;;26.70;45.53
42385;BME280;28042;43.986;22.860;2023-05-20T12:17:18;101324.47;;;26.33;46.37
42385;BME280;28042;43.986;22.860;2023-05-20T12:19:44;101319.16;;;25.72;50.60
42385;BME280;28042;43.986;22.860;2023-05-20T12:22:09;101311.38;;;24.97;52.20
42385;BME280;28042;43.986;22.860;2023-05-20T12:24:34;101307.88;;;24.24;53.60
42385;BME280;28042;43.986;22.860;2023-05-20T12:27:00;101295.53;;;24.00;54.52
42385;BME280;28042;43.986;22.860;2023-05-20T12:29:28;101304.56;;;22.63;64.09
42385;BME280;28042;43.986;22.860;2023-05-20T12:31:53;101297.06;;;21.49;71.75
42385;BME280;28042;43.986;22.860;2023-05-20T12:34:19;101295.13;;;21.71;73.49
42385;BME280;28042;43.986;22.860;2023-05-20T12:36:44;101274.38;;;22.50;67.67
42385;BME280;28042;43.986;22.860;2023-05-20T12:39:10;101273.41;;;23.30;63.78
42385;BME280;28042;43.986;22.860;2023-05-20T12:41:36;101271.50;;;23.83;59.44